tititudorancea.com
Station Historical Data
Daily Summary for May 3, 2018 Units:  Metric    English   Both
« Previous Day
Next Day »
Daily Weekly Monthly Yearly Custom
  High: Low: Average:
Temperature: -17.8 °C 10.5 °C 12.9 °C
Dew Point: -17.8 °C 2.8 °C 6.4 °C
Humidity: Humidity % 44 % 67 %
Wind Speed: 0 km/h 0.2 km/h 7.2 km/h
Wind Gust: 0 km/h - -
Wind:- - SW
Pressure: 0 hPa 1005.3 hPa -
Precipitation: 10.92 mm    
Historical Graphs
 
 
Ararat weather Find more about Weather in Ararat, AU


 



 


Tabular Data for May 3, 2018
Time Temperature Dew Point Pressure Wind Wind Speed Wind Gust Humidity Rainfall Rate (Hourly)
-17.8 °C -17.8 °C 0 hPa Calm     Humidity % 0 mm
00:03 12.8 °C 4.5 °C 1010.7 hPa North 4 km/h 5.6 km/h 57 % 0 mm
00:08 13.1 °C 4.4 °C 1010.4 hPa North 2.7 km/h 5.6 km/h 56 % 0 mm
00:13 13.3 °C 4.4 °C 1010.4 hPa North 3.7 km/h 5.6 km/h 55 % 0 mm
00:18 13.4 °C 4.5 °C 1010.4 hPa North 3.2 km/h 5.6 km/h 55 % 0 mm
00:23 13.5 °C 4.4 °C 1010.4 hPa North 3.2 km/h 3.7 km/h 54 % 0 mm
00:28 13.6 °C 4.4 °C 1010.4 hPa North 2.7 km/h 5.6 km/h 54 % 0 mm
00:33 13.6 °C 4.4 °C 1010.4 hPa North 5 km/h 6.4 km/h 54 % 0 mm
00:38 13.5 °C 4.4 °C 1010.4 hPa North 5.1 km/h 5.6 km/h 54 % 0 mm
00:43 12.9 °C 4.1 °C 1010.4 hPa North 2.1 km/h 5.6 km/h 55 % 0 mm
00:45 12.6 °C 4 °C 1010.4 hPa North 1.8 km/h 5.6 km/h 56 % 0 mm
00:50 12 °C 4 °C 1010.4 hPa North 2.1 km/h 3.7 km/h 58 % 0 mm
00:55 11.8 °C 4.1 °C 1010.4 hPa North 3.5 km/h 5.6 km/h 59 % 0 mm
01:00 12.1 °C 4.3 °C 1010.4 hPa North 2.1 km/h 5.6 km/h 59 % 0 mm
01:05 12.2 °C 4.2 °C 1010.4 hPa North 6.3 km/h 9.3 km/h 58 % 0 mm
01:10 12.4 °C 4.1 °C 1010.4 hPa North 4.3 km/h 7.4 km/h 57 % 0 mm
01:15 12.4 °C 4.1 °C 1010.4 hPa North 4.7 km/h 5.6 km/h 57 % 0 mm
01:20 12.2 °C 3.9 °C 1010 hPa North 5.8 km/h 6.4 km/h 57 % 0 mm
01:25 12.1 °C 4.1 °C 1010 hPa North 5.1 km/h 8 km/h 58 % 0 mm
01:30 12 °C 4 °C 1010 hPa North 4.3 km/h 5.6 km/h 58 % 0 mm
01:35 11.8 °C 4.1 °C 1010 hPa North 3.4 km/h 5.6 km/h 59 % 0 mm
01:40 11.6 °C 3.8 °C 1010.4 hPa North 0.6 km/h 1.9 km/h 59 % 0 mm
01:45 11.3 °C 3.8 °C 1010.4 hPa North 1.1 km/h 3.7 km/h 60 % 0 mm
01:50 11.2 °C 3.9 °C 1010 hPa North 0.2 km/h 1.9 km/h 61 % 0 mm
01:55 11.1 °C 3.9 °C 1010 hPa North 2.7 km/h 5.6 km/h 61 % 0 mm
02:00 11 °C 4 °C 1010 hPa North 2.9 km/h 5.6 km/h 62 % 0 mm
02:05 10.7 °C 3.9 °C 1010 hPa North 0.6 km/h 3.7 km/h 63 % 0 mm
02:10 10.6 °C 3.8 °C 1010 hPa North 2.4 km/h 5.6 km/h 63 % 0 mm
02:16 10.5 °C 3.9 °C 1010 hPa North 3.7 km/h 3.7 km/h 64 % 0 mm
02:21 10.6 °C 4.1 °C 1010 hPa North 3.1 km/h 5.6 km/h 64 % 0 mm
02:26 10.7 °C 3.9 °C 1010 hPa North 3.5 km/h 5.6 km/h 63 % 0 mm
02:31 10.9 °C 4.1 °C 1010 hPa North 4.2 km/h 5.6 km/h 63 % 0 mm
02:36 11.1 °C 4.1 °C 1010 hPa North 4.5 km/h 7.4 km/h 62 % 0 mm
02:41 11.3 °C 4.1 °C 1010 hPa North 3.9 km/h 5.6 km/h 61 % 0 mm
02:46 11.3 °C 3.8 °C 1010 hPa North 0.3 km/h 1.9 km/h 60 % 0 mm
02:51 11.2 °C 3.9 °C 1010 hPa North 0.2 km/h 1.9 km/h 61 % 0 mm
02:56 11.2 °C 3.9 °C 1010 hPa North 0.2 km/h 1.9 km/h 61 % 0 mm
03:01 11.1 °C 4.1 °C 1009.7 hPa North 4.2 km/h 5.6 km/h 62 % 0 mm
03:06 11.2 °C 4.2 °C 1009.7 hPa North 3.5 km/h 5.6 km/h 62 % 0 mm
03:11 11.7 °C 4.2 °C 1009.7 hPa North 5 km/h 7.4 km/h 60 % 0 mm
03:16 12.7 °C 4.1 °C 1009.7 hPa North 7.9 km/h 13 km/h 56 % 0 mm
03:21 13.8 °C 4.1 °C 1009.7 hPa North 8.4 km/h 14.8 km/h 52 % 0 mm
03:26 14.4 °C 4.2 °C 1009.7 hPa NNW 9.5 km/h 13 km/h 50 % 0 mm
03:31 14.9 °C 3.9 °C 1009.7 hPa North 7.7 km/h 11.1 km/h 48 % 0 mm
03:36 15.1 °C 3.8 °C 1009.7 hPa NNW 7.9 km/h 14.8 km/h 47 % 0 mm
03:41 15.1 °C 3.8 °C 1009.7 hPa NNW 5.3 km/h 9.3 km/h 47 % 0 mm
03:46 15.1 °C 3.8 °C 1009.7 hPa North 5.6 km/h 11.1 km/h 47 % 0 mm
03:51 15.1 °C 3.8 °C 1009.7 hPa NNW 6.6 km/h 7.4 km/h 47 % 0 mm
03:56 15.1 °C 3.8 °C 1009.7 hPa NNW 5.8 km/h 7.4 km/h 47 % 0 mm
04:01 15 °C 3.8 °C 1009.4 hPa North 4 km/h 5.6 km/h 47 % 0 mm
04:06 15 °C 3.8 °C 1009.4 hPa NNW 5.6 km/h 7.4 km/h 47 % 0 mm
04:11 14.9 °C 3.7 °C 1009.4 hPa North 2.4 km/h 5.6 km/h 47 % 0 mm
04:16 14.9 °C 3.9 °C 1009.4 hPa NNW 5.1 km/h 7.4 km/h 48 % 0 mm
04:21 14.8 °C 3.9 °C 1009.4 hPa NNW 4.2 km/h 5.6 km/h 48 % 0 mm
04:26 14.7 °C 3.8 °C 1009.4 hPa North 5.1 km/h 7.4 km/h 48 % 0 mm
04:31 14.6 °C 3.7 °C 1009.4 hPa NNW 3.4 km/h 5.6 km/h 48 % 0 mm
04:36 14.5 °C 3.9 °C 1009.4 hPa North 3.2 km/h 5.6 km/h 49 % 0 mm
04:41 14.4 °C 3.8 °C 1009.4 hPa North 3.4 km/h 5.6 km/h 49 % 0 mm
04:46 14.2 °C 3.7 °C 1009.4 hPa NNW 3.7 km/h 5.6 km/h 49 % 0 mm
04:51 14.1 °C 3.8 °C 1009.4 hPa NNW 4.3 km/h 7.4 km/h 50 % 0 mm
04:56 13.9 °C 3.9 °C 1009.4 hPa NNW 1.6 km/h 3.7 km/h 51 % 0 mm
05:00 13.9 °C 3.9 °C 1009.4 hPa North 2.1 km/h 5.6 km/h 51 % 0 mm
05:05 13.9 °C 3.9 °C 1009.4 hPa North 1.9 km/h 5.6 km/h 51 % 0 mm
05:10 14 °C 3.7 °C 1009.4 hPa NNW 2.7 km/h 5.6 km/h 50 % 0 mm
05:15 14.1 °C 3.8 °C 1009.4 hPa North 2.1 km/h 5.6 km/h 50 % 0 mm
05:20 14.1 °C 3.8 °C 1009 hPa NNW 3.5 km/h 5.6 km/h 50 % 0 mm
05:25 14.2 °C 3.9 °C 1009 hPa NNW 2.4 km/h 5.6 km/h 50 % 0 mm
05:30 14.3 °C 4 °C 1009.4 hPa North 4.7 km/h 7.4 km/h 50 % 0 mm
05:35 14.6 °C 3.9 °C 1009.4 hPa North 6.9 km/h 11.3 km/h 49 % 0 mm
05:40 14.6 °C 4 °C 1009.4 hPa North 5.3 km/h 11.1 km/h 49 % 0 mm
05:45 14.6 °C 4 °C 1009.4 hPa North 2.9 km/h 6.4 km/h 49 % 0 mm
05:50 14.6 °C 4 °C 1009.4 hPa NNW 3.5 km/h 5.6 km/h 49 % 0 mm
05:55 14.6 °C 4 °C 1009.4 hPa NNW 2.1 km/h 5.6 km/h 49 % 0 mm
06:01 14.5 °C 3.9 °C 1009.4 hPa NNW 1.4 km/h 5.6 km/h 49 % 0 mm
06:06 14.3 °C 4.1 °C 1009.4 hPa North 3.5 km/h 3.7 km/h 50 % 0 mm
06:11 14.2 °C 3.9 °C 1009.4 hPa North 3.1 km/h 6.4 km/h 50 % 0 mm
06:16 14.2 °C 3.9 °C 1009.4 hPa NNW 5.3 km/h 5.6 km/h 50 % 0 mm
06:21 14.2 °C 3.9 °C 1009.4 hPa NNW 3.7 km/h 4.8 km/h 50 % 0 mm
06:26 14.2 °C 3.9 °C 1009.4 hPa North 3.9 km/h 5.6 km/h 50 % 0 mm
06:31 14.1 °C 3.8 °C 1009.4 hPa NNW 2.1 km/h 5.6 km/h 50 % 0 mm
06:36 14 °C 3.7 °C 1009.4 hPa North 2.4 km/h 5.6 km/h 50 % 0 mm
06:41 13.9 °C 3.9 °C 1009 hPa NNW 3.4 km/h 5.6 km/h 51 % 0 mm
06:46 13.7 °C 3.7 °C 1009 hPa NNW 3.9 km/h 5.6 km/h 51 % 0 mm
06:51 13.5 °C 3.8 °C 1009 hPa North 3.2 km/h 5.6 km/h 52 % 0 mm
06:56 13.4 °C 3.8 °C 1009.4 hPa NNW 4.3 km/h 6.4 km/h 52 % 0 mm
07:01 13.4 °C 3.7 °C 1009 hPa North 4.5 km/h 7.4 km/h 52 % 0 mm
07:06 13.3 °C 3.7 °C 1009 hPa NNW 5 km/h 7.4 km/h 52 % 0 mm
07:11 13.2 °C 3.5 °C 1009 hPa NNW 4 km/h 5.6 km/h 52 % 0 mm
07:16 13 °C 3.6 °C 1009.4 hPa North 3.5 km/h 5.6 km/h 53 % 0 mm
07:21 12.9 °C 3.6 °C 1009.4 hPa North 2.4 km/h 3.7 km/h 53 % 0 mm
07:26 12.8 °C 3.5 °C 1009.4 hPa North 1.1 km/h 4.8 km/h 53 % 0 mm
07:31 12.8 °C 3.4 °C 1009.4 hPa North 3.9 km/h 5.6 km/h 53 % 0 mm
07:36 12.7 °C 3.4 °C 1009.4 hPa NNW 2.7 km/h 5.6 km/h 53 % 0 mm
07:41 12.8 °C 3.4 °C 1009.4 hPa NNW 3.2 km/h 5.6 km/h 53 % 0 mm
07:46 12.8 °C 3.4 °C 1009.4 hPa NNW 4.8 km/h 9.3 km/h 53 % 0 mm
07:51 12.9 °C 3.3 °C 1009.7 hPa NNW 5.8 km/h 9.3 km/h 52 % 0 mm
07:56 13.1 °C 3.2 °C 1009.7 hPa NNW 6.1 km/h 9.3 km/h 51 % 0 mm
08:01 13.3 °C 3.4 °C 1009.7 hPa NNW 3.5 km/h 5.6 km/h 51 % 0 mm
08:06 13.5 °C 3.3 °C 1009.7 hPa NNW 3.7 km/h 5.6 km/h 50 % 0 mm
08:11 13.6 °C 3.1 °C 1009.7 hPa North 6 km/h 9.3 km/h 49 % 0 mm
08:16 13.7 °C 3.1 °C 1010 hPa NNW 6.3 km/h 9.3 km/h 49 % 0 mm
08:21 13.8 °C 2.9 °C 1010 hPa NNW 3.9 km/h 5.6 km/h 48 % 0 mm
08:26 13.9 °C 3.1 °C 1010 hPa North 8.2 km/h 12.9 km/h 48 % 0 mm
08:31 14 °C 2.8 °C 1010 hPa NNW 6.8 km/h 9.3 km/h 47 % 0 mm
08:36 14.1 °C 2.9 °C 1010 hPa North 5.8 km/h 8 km/h 47 % 0 mm
08:41 14.1 °C 2.9 °C 1010 hPa NNW 6 km/h 11.3 km/h 47 % 0 mm
08:50 14.2 °C 3 °C 1010 hPa North 9.5 km/h 11.1 km/h 47 % 0 mm
12:59 18.1 °C 5.9 °C 1006 hPa NW 14.3 km/h 16.7 km/h 45 % 0 mm
13:03 17.9 °C 6.2 °C 1006 hPa North 7.9 km/h 12.9 km/h 46 % 0 mm
13:09 17.9 °C 6.2 °C 1006.3 hPa North 10.3 km/h 22.2 km/h 46 % 0 mm
13:14 17.9 °C 6.1 °C 1006.3 hPa North 13.5 km/h 16.7 km/h 46 % 0 mm
13:19 17.8 °C 6.1 °C 1006.3 hPa NW 14.6 km/h 18.5 km/h 46 % 0 mm
13:24 17.7 °C 6.3 °C 1006 hPa North 11.6 km/h 16.7 km/h 47 % 0 mm
13:29 17.6 °C 6.2 °C 1006.3 hPa NW 13.8 km/h 14.8 km/h 47 % 0 mm
13:34 17.4 °C 5.7 °C 1006 hPa NW 12.1 km/h 18.5 km/h 46 % 0 mm
13:39 17.2 °C 5.5 °C 1006 hPa North 9 km/h 13 km/h 46 % 0 mm
13:44 17.1 °C 5.7 °C 1005.6 hPa North 6.3 km/h 7.4 km/h 47 % 0 mm
13:49 17 °C 5.3 °C 1005.6 hPa North 9.2 km/h 22.2 km/h 46 % 0 mm
13:54 17 °C 5.3 °C 1005.6 hPa North 7.6 km/h 13 km/h 46 % 0 mm
13:59 17 °C 5.3 °C 1005.6 hPa NNW 6.6 km/h 13 km/h 46 % 0 mm
14:04 17.1 °C 5.3 °C 1005.3 hPa North 12.6 km/h 18.5 km/h 46 % 0 mm
14:09 17.1 °C 5.1 °C 1005.3 hPa North 10.3 km/h 17.7 km/h 45 % 0 mm
14:14 17.1 °C 4.7 °C 1005.3 hPa NNW 12.9 km/h 18.5 km/h 44 % 0 mm
14:19 17.1 °C 4.7 °C 1005.6 hPa NNW 12.2 km/h 18.5 km/h 44 % 0 mm
14:24 17.1 °C 5 °C 1006 hPa North 8.4 km/h 12.9 km/h 45 % 0 mm
14:29 16.8 °C 5.7 °C 1005.6 hPa North 7.1 km/h 14.8 km/h 48 % 0 mm
14:34 16.5 °C 5.7 °C 1005.3 hPa North 6.8 km/h 8 km/h 49 % 0 mm
14:39 16.2 °C 6.1 °C 1005.3 hPa NNW 9.5 km/h 14.8 km/h 51 % 0 mm
14:44 16.1 °C 6.2 °C 1005.3 hPa North 8.4 km/h 11.1 km/h 52 % 0 mm
14:49 15.8 °C 6.2 °C 1005.3 hPa North 10.6 km/h 18.5 km/h 53 % 0 mm
14:54 15.6 °C 6.6 °C 1005.3 hPa NNW 6.6 km/h 9.3 km/h 55 % 0 mm
14:59 15.6 °C 6.8 °C 1005.3 hPa North 9.5 km/h 18.5 km/h 56 % 0 mm
15:04 15.6 °C 6.6 °C 1005.3 hPa North 7.7 km/h 14.8 km/h 55 % 0 mm
15:09 15.7 °C 6.2 °C 1005.3 hPa North 8.7 km/h 16.7 km/h 53 % 0 mm
15:14 15.8 °C 6.3 °C 1005.3 hPa NNW 10.3 km/h 18.5 km/h 53 % 0 mm
15:19 15.9 °C 6.1 °C 1005.3 hPa North 7.1 km/h 9.3 km/h 52 % 0 mm
15:24 16 °C 5.8 °C 1005.3 hPa North 10 km/h 14.8 km/h 51 % 0 mm
15:29 16.1 °C 5.9 °C 1005.3 hPa North 11.4 km/h 16.7 km/h 51 % 0 mm
15:34 16.1 °C 5.9 °C 1005.3 hPa North 11.3 km/h 14.8 km/h 51 % 0 mm
15:39 16.1 °C 5.9 °C 1005.6 hPa North 16.1 km/h 24.1 km/h 51 % 0 mm
15:44 16.1 °C 6.2 °C 1005.6 hPa North 10.1 km/h 13 km/h 52 % 0 mm
15:49 16.1 °C 6.4 °C 1005.6 hPa NNW 13.8 km/h 18.5 km/h 53 % 0 mm
15:54 15.8 °C 6.8 °C 1005.3 hPa NNE 20.3 km/h 29.6 km/h 55 % 0 mm
15:59 15.3 °C 7.1 °C 1005.3 hPa North 23 km/h 35.2 km/h 58 % 0 mm
16:04 15.1 °C 6.9 °C 1005.3 hPa North 14.8 km/h 24.1 km/h 58 % 0 mm
16:09 15 °C 7.1 °C 1005.3 hPa North 10.1 km/h 17.7 km/h 59 % 0 mm
16:14 14.9 °C 7 °C 1005.6 hPa North 10.9 km/h 14.8 km/h 59 % 0 mm
16:19 14.9 °C 6.9 °C 1005.3 hPa North 14.8 km/h 24.1 km/h 59 % 0 mm
16:24 14.8 °C 6.8 °C 1005.3 hPa North 15.3 km/h 22.2 km/h 59 % 0 mm
16:29 14.6 °C 7.1 °C 1005.3 hPa NNW 11.6 km/h 18.5 km/h 61 % 0.25 mm
16:34 14.3 °C 7.3 °C 1005.3 hPa NNE 11.3 km/h 18.5 km/h 63 % 0.25 mm
16:39 13.9 °C 7.2 °C 1005.3 hPa North 14 km/h 24.1 km/h 64 % 0.25 mm
16:44 13.7 °C 7.7 °C 1005.3 hPa NNE 13.8 km/h 20.4 km/h 67 % 0.25 mm
16:49 13.4 °C 7.8 °C 1005.3 hPa North 14.3 km/h 24.1 km/h 69 % 0.51 mm
16:54 12.9 °C 7.8 °C 1005.3 hPa NNW 8.5 km/h 16.7 km/h 71 % 0.76 mm
16:57 12.8 °C 8.1 °C 1005.6 hPa North 9.5 km/h 13 km/h 73 % 0.76 mm
17:02 12.4 °C 8.1 °C 1005.6 hPa North 6.4 km/h 13 km/h 75 % 1.02 mm
17:07 12.1 °C 8.4 °C 1005.6 hPa North 9.5 km/h 18.5 km/h 78 % 1.27 mm
17:12 11.9 °C 8.6 °C 1005.6 hPa North 8.9 km/h 18.5 km/h 80 % 1.78 mm
17:17 11.8 °C 8.8 °C 1005.6 hPa North 11.1 km/h 13 km/h 82 % 2.03 mm
17:22 11.7 °C 9.1 °C 1005.3 hPa North 8 km/h 18.5 km/h 84 % 2.29 mm
17:27 11.6 °C 9.1 °C 1005.3 hPa North 6.4 km/h 13 km/h 85 % 2.54 mm
17:32 11.4 °C 9.2 °C 1005.6 hPa North 8.5 km/h 13 km/h 86 % 3.05 mm
17:37 11.4 °C 9.3 °C 1005.6 hPa North 8.4 km/h 16.7 km/h 87 % 3.81 mm
17:42 11.4 °C 9.5 °C 1005.6 hPa North 6.6 km/h 17.7 km/h 88 % 4.06 mm
17:47 11.5 °C 9.7 °C 1005.6 hPa NNE 11.7 km/h 22.2 km/h 89 % 4.32 mm
17:52 11.5 °C 9.7 °C 1005.6 hPa North 7.7 km/h 11.1 km/h 89 % 4.83 mm
17:57 11.5 °C 9.9 °C 1005.6 hPa North 10.3 km/h 17.7 km/h 90 % 4.83 mm
18:02 11.4 °C 9.9 °C 1005.6 hPa NNE 12.7 km/h 18.5 km/h 90 % 5.08 mm
18:07 11.4 °C 9.9 °C 1006 hPa North 5.3 km/h 11.1 km/h 90 % 4.83 mm
18:12 11.5 °C 10.1 °C 1006 hPa North 7.7 km/h 13 km/h 91 % 4.57 mm
18:17 11.6 °C 10.1 °C 1006 hPa NNE 6.1 km/h 9.3 km/h 91 % 4.57 mm
18:22 11.7 °C 10.2 °C 1006 hPa WNW 14.2 km/h 20.9 km/h 91 % 4.32 mm
18:27 11.7 °C 10.2 °C 1006.3 hPa North 9.5 km/h 13 km/h 91 % 3.81 mm
18:32 11.6 °C 10.2 °C 1006.3 hPa North 13.5 km/h 18.5 km/h 91 % 3.3 mm
18:37 11.7 °C 10.4 °C 1006.3 hPa North 9.3 km/h 13 km/h 92 % 2.79 mm
18:42 11.7 °C 10.4 °C 1006.7 hPa North 14.8 km/h 27.8 km/h 92 % 2.54 mm
18:47 11.7 °C 10.4 °C 1006.7 hPa North 10.8 km/h 18.5 km/h 92 % 2.29 mm
18:52 11.7 °C 10.4 °C 1006.7 hPa North 11.4 km/h 14.8 km/h 92 % 1.52 mm
18:57 11.6 °C 10.3 °C 1007 hPa NNW 11.3 km/h 18.5 km/h 92 % 1.27 mm
19:02 11.6 °C 10.3 °C 1007 hPa North 12.1 km/h 18.5 km/h 92 % 1.02 mm
19:07 11.4 °C 10.2 °C 1007 hPa NNW 15.4 km/h 27.8 km/h 92 % 0.76 mm
19:12 11.3 °C 10.2 °C 1007 hPa North 10 km/h 16.7 km/h 93 % 0.76 mm
19:17 11.2 °C 10.1 °C 1007 hPa North 15 km/h 18.5 km/h 93 % 0.76 mm
19:22 11.1 °C 10 °C 1007 hPa North 12.4 km/h 20.4 km/h 93 % 1.27 mm
19:27 11.1 °C 10 °C 1007 hPa North 10.3 km/h 18.5 km/h 93 % 1.27 mm
19:32 11.1 °C 9.9 °C 1007.3 hPa NNW 14 km/h 18.5 km/h 93 % 1.27 mm
19:37 11.1 °C 9.9 °C 1007.3 hPa North 11.9 km/h 16.7 km/h 93 % 2.03 mm
19:42 11.1 °C 9.9 °C 1007.3 hPa North 6.6 km/h 14.8 km/h 93 % 2.29 mm
19:47 11 °C 9.9 °C 1007.3 hPa NNW 7.7 km/h 13 km/h 93 % 2.29 mm
19:52 11 °C 9.9 °C 1007.3 hPa North 9.5 km/h 16.7 km/h 93 % 2.29 mm
19:57 11 °C 10.1 °C 1007.3 hPa North 9.5 km/h 11.3 km/h 94 % 2.29 mm
20:02 11.1 °C 10.1 °C 1007.3 hPa North 9 km/h 13 km/h 94 % 2.29 mm
20:07 11.1 °C 10.1 °C 1007.3 hPa North 11.3 km/h 18.5 km/h 94 % 2.29 mm
20:12 11.1 °C 10.1 °C 1007.3 hPa North 9.8 km/h 18.5 km/h 94 % 2.29 mm
20:17 11.1 °C 10.1 °C 1007.3 hPa NNE 8.5 km/h 14.8 km/h 94 % 2.29 mm
20:22 11.1 °C 10.1 °C 1007.3 hPa North 6.9 km/h 13 km/h 94 % 2.29 mm
20:27 11.1 °C 10.1 °C 1007 hPa North 11.7 km/h 14.8 km/h 94 % 2.29 mm
20:32 11.1 °C 10.1 °C 1006.3 hPa NNE 5 km/h 9.3 km/h 94 % 2.29 mm
20:34 11.1 °C 10.1 °C 1006.3 hPa North 5.8 km/h 9.3 km/h 94 % 1.78 mm
20:39 11 °C 10.1 °C 1006.7 hPa NNE 7.4 km/h 9.3 km/h 94 % 1.27 mm
20:44 11 °C 10.1 °C 1006.7 hPa NNE 6.8 km/h 7.4 km/h 94 % 1.27 mm
20:49 11 °C 10.1 °C 1006.7 hPa NNE 7.2 km/h 9.3 km/h 94 % 1.02 mm
20:54 10.9 °C 10 °C 1007 hPa NNE 7.9 km/h 11.1 km/h 94 % 1.02 mm
20:59 10.9 °C 10 °C 1006.7 hPa NNE 2.7 km/h 8 km/h 94 % 1.27 mm
21:04 10.9 °C 10 °C 1006.7 hPa North 5.8 km/h 8 km/h 94 % 1.27 mm
21:09 10.9 °C 10 °C 1007 hPa North 6.4 km/h 9.3 km/h 94 % 1.02 mm
21:14 10.9 °C 10 °C 1007 hPa North 7.9 km/h 11.1 km/h 94 % 1.02 mm
21:19 10.9 °C 10 °C 1007 hPa North 5.6 km/h 9.3 km/h 94 % 0.76 mm
21:24 10.9 °C 10 °C 1007.3 hPa North 10.1 km/h 16.7 km/h 94 % 0.51 mm
21:29 10.9 °C 10 °C 1007.3 hPa NNW 10.9 km/h 18.5 km/h 94 % 0.51 mm
21:34 10.9 °C 10.2 °C 1007.3 hPa NNW 7.1 km/h 14.8 km/h 95 % 0.25 mm
21:39 10.9 °C 10.2 °C 1007.3 hPa NNW 7.4 km/h 11.1 km/h 95 % 0.25 mm
21:44 10.9 °C 10.2 °C 1007.3 hPa NNW 6.8 km/h 9.3 km/h 95 % 0.25 mm
21:49 10.9 °C 10.2 °C 1007.3 hPa North 10.1 km/h 18.5 km/h 95 % 0.25 mm
21:54 10.9 °C 10.2 °C 1007.3 hPa NNW 4.3 km/h 5.6 km/h 95 % 0.25 mm
21:59 11 °C 10.2 °C 1007.3 hPa NNW 5.3 km/h 12.9 km/h 95 % 0 mm
22:04 11 °C 10.2 °C 1007.3 hPa NNW 7.1 km/h 11.3 km/h 95 % 0 mm
22:09 11 °C 10.2 °C 1007.3 hPa NNW 10.1 km/h 16.7 km/h 95 % 0 mm
22:14 11.1 °C 10.3 °C 1007.3 hPa North 9 km/h 13 km/h 95 % 0 mm
22:19 11.1 °C 10.3 °C 1007.3 hPa North 12.2 km/h 18.5 km/h 95 % 0 mm
22:24 11.1 °C 10.3 °C 1007.3 hPa North 5.1 km/h 7.4 km/h 95 % 0 mm
22:29 11.1 °C 10.3 °C 1007 hPa North 7.6 km/h 13 km/h 95 % 0 mm
22:34 11.1 °C 10.3 °C 1007 hPa NNW 9.3 km/h 16.7 km/h 95 % 0 mm
22:39 11.1 °C 10.3 °C 1006.7 hPa North 9.7 km/h 16.1 km/h 95 % 0 mm
22:44 11.1 °C 10.3 °C 1006.7 hPa North 10.1 km/h 14.8 km/h 95 % 0 mm
22:49 11.1 °C 10.3 °C 1006.7 hPa North 8.2 km/h 13 km/h 95 % 0 mm
22:54 11.1 °C 10.3 °C 1006.7 hPa North 8.7 km/h 16.7 km/h 95 % 0 mm
22:59 11.1 °C 10.3 °C 1006.7 hPa North 7.6 km/h 12.9 km/h 95 % 0 mm
23:04 11.1 °C 10.3 °C 1006.7 hPa North 10.1 km/h 14.8 km/h 95 % 0 mm
23:09 11.1 °C 10.3 °C 1006.3 hPa North 11.7 km/h 18.5 km/h 95 % 0 mm
23:14 11.1 °C 10.3 °C 1006.3 hPa NNW 10.9 km/h 20.4 km/h 95 % 0 mm
23:19 11.1 °C 10.3 °C 1006.3 hPa NNW 11.3 km/h 14.8 km/h 95 % 0 mm
23:24 11.1 °C 10.3 °C 1006.3 hPa NW 8 km/h 16.7 km/h 95 % 0.25 mm
23:29 11.1 °C 10.2 °C 1006.3 hPa North 6.9 km/h 11.1 km/h 94 % 0.25 mm
23:34 11.1 °C 10.2 °C 1006.3 hPa North 12.2 km/h 20.9 km/h 94 % 0.25 mm
23:39 11.1 °C 10.2 °C 1006.3 hPa NNW 10.5 km/h 18.5 km/h 94 % 0.25 mm
23:44 11.1 °C 10.2 °C 1006.3 hPa NNW 12.2 km/h 16.7 km/h 94 % 0.25 mm
23:49 11.1 °C 10.2 °C 1006.3 hPa North 11.4 km/h 16.7 km/h 94 % 0.25 mm
23:54 11.1 °C 10.2 °C 1006.3 hPa NNW 15.3 km/h 20.4 km/h 94 % 0.25 mm
23:59 11.2 °C 10.2 °C 1006.3 hPa NW 12.1 km/h 18.5 km/h 94 % 0.25 mm
Ararat Weather
Compliments of Weather Underground - 2 mb
Click here to send mail.


ABOUT

Live weather data from Ararat, Victoria, Australia, 3377
Data uploaded from Cumulus every 5 minutes to Weather Underground.
This site then downloads the raw data for formatting and display.
Metric and imperial data can be displayed. Graphs and historical data available.
Includes Sun and Moon times and rain image live from BOM.

Check out Ararat Weather on Facebook, Twitter and Google +

Help support ongoing costs by checking out the ads





Follow @AraratWeather